Flight Track Log - Related Links

Times and Time Zones

All times are in EST time to prevent confusion due to time zone crossing. See the AFL1461 flight status page for this flight to view local times or setup timezone preferences in your user account.

Time Position Orientation Groundspeed Altitude Reporting Facility
EST Latitude Longitude Course Direction KTS MPH feet Rate Location/Type
Tue 08:06:10 AM 56.8668 68.9803 281° West 409 471 32,000  Level FlightAware ADS-B (USTR / TJM)
Tue 08:06:23 AM 56.8713 68.9364 281° West 407 468 32,000  Level FlightAware ADS-B (USTR / TJM)
Tue 08:06:40 AM 56.8748 68.9021 281° West 406 467 32,000  Level FlightAware ADS-B (USTR / TJM)
Tue 08:07:01 AM 56.8852 68.7993 281° West 405 466 32,000  Level FlightAware ADS-B (USTR / TJM)
Tue 08:07:10 AM 56.8883 68.7679 280° West 404 465 32,000  Level FlightAware ADS-B (USTR / TJM)
Tue 08:07:33 AM 56.8948 68.7025 280° West 402 463 32,000  Level FlightAware ADS-B (USTR / TJM)
Tue 08:07:41 AM 56.8984 68.6666 280° West 401 461 32,000  Level FlightAware ADS-B (USTR / TJM)
Tue 08:08:04 AM 56.9057 68.5924 280° West 398 458 32,000  Level FlightAware ADS-B (USTR / TJM)
Tue 08:08:10 AM 56.9075 68.5732 280° West 399 459 32,000  Level FlightAware ADS-B (USTR / TJM)
Tue 08:08:40 AM 56.9173 68.4730 280° West 397 457 32,000  Level FlightAware ADS-B (USTR / TJM)
Tue 08:08:43 AM 56.9183 68.4625 280° West 396 456 32,000  Level FlightAware ADS-B (USTR / TJM)
Tue 08:09:10 AM 56.9270 68.3739 280° West 396 456 32,000  Level FlightAware ADS-B (USTR / TJM)
Tue 08:09:13 AM 56.9283 68.3600 280° West 395 455 32,000  Level FlightAware ADS-B (USTR / TJM)
Tue 08:09:40 AM 56.9366 68.2734 280° West 396 456 32,000  Level FlightAware ADS-B (USTR / TJM)
Tue 08:09:43 AM 56.9375 68.2649 280° West 395 455 32,000  Level FlightAware ADS-B (USTR / TJM)
Tue 08:10:10 AM 56.9460 68.1757 280° West 396 456 32,000  Level FlightAware ADS-B (USTR / TJM)
Tue 08:10:13 AM 56.9469 68.1665 280° West 395 455 32,000  Level FlightAware ADS-B (USTR / TJM)
Tue 08:10:40 AM 56.9548 68.0817 280° West 395 455 32,000  Level FlightAware ADS-B (USTR / TJM)
Tue 08:10:43 AM 56.9561 68.0678 279° West 395 455 32,000  Level FlightAware ADS-B (USTR / TJM)
Tue 08:11:10 AM 56.9648 67.9746 280° West 395 455 32,000  Level FlightAware ADS-B (USTR / TJM)
Tue 08:11:13 AM 56.9653 67.9693 280° West 395 455 32,000  Level FlightAware ADS-B (USTR / TJM)
Tue 08:11:40 AM 56.9739 67.8761 280° West 395 455 32,000  Level FlightAware ADS-B (USTR / TJM)
Tue 08:11:43 AM 56.9744 67.8709 279° West 395 455 32,000  Level FlightAware ADS-B (USTR / TJM)
Tue 08:12:09 AM 56.9824 67.7837 280° West 394 453 32,000  Level FlightAware ADS-B (USTR / TJM)
Tue 08:12:13 AM 56.9832 67.7758 280° West 393 452 32,000  Level FlightAware ADS-B (USTR / TJM)
Tue 08:12:40 AM 56.9915 67.6837 280° West 392 451 32,000  Level FlightAware ADS-B (USTR / TJM)
Tue 08:12:52 AM 56.9953 67.6419 280° West 391 450 32,000  Level FlightAware ADS-B (USTR / TJM)
Tue 08:13:09 AM 57.0001 67.5892 279° West 391 450 32,000  Level FlightAware ADS-B (USTR / TJM)
Tue 08:13:23 AM 57.0041 67.5443 279° West 390 449 32,000  Level FlightAware ADS-B (USTR / TJM)
Tue 08:13:53 AM 57.0127 67.4474 279° West 390 449 32,000  Level FlightAware ADS-B (USTR / TJM)
Tue 08:13:59 AM 57.0149 67.4226 279° West 391 450 32,000  Level FlightAware ADS-B (USTR / TJM)
Tue 08:14:30 AM 57.0237 67.3223 279° West 391 450 32,000  Level FlightAware ADS-B (USTR / TJM)
Tue 08:14:33 AM 57.0241 67.3178 279° West 390 449 32,000  Level FlightAware ADS-B (USTR / TJM)
Tue 08:15:00 AM 57.0321 67.2265 279° West 392 451 32,000  Level FlightAware ADS-B (USTR / TJM)
Tue 08:15:03 AM 57.0328 67.2187 279° West 391 450 32,000  Level FlightAware ADS-B (USTR / TJM)
Tue 08:15:31 AM 57.0406 67.1279 279° West 391 450 32,000  Level FlightAware ADS-B (USTR / TJM)
Tue 08:15:33 AM 57.0409 67.1247 279° West 391 450 32,000  Level FlightAware ADS-B (USTR / TJM)
Tue 08:16:00 AM 57.0490 67.0305 279° West 392 451 32,000  Level FlightAware ADS-B (USTR / TJM)
Tue 08:16:03 AM 57.0498 67.0213 279° West 392 451 32,000  Level FlightAware ADS-B (USTR / TJM)
Tue 08:16:29 AM 57.0572 66.9337 279° West 392 451 32,000  Level FlightAware ADS-B (USTR / TJM)
Tue 08:16:33 AM 57.0579 66.9258 279° West 392 451 32,000  Level FlightAware ADS-B (USTR / TJM)
Tue 08:17:00 AM 57.0653 66.8344 278° West 394 453 32,000  Level FlightAware ADS-B (USTR / TJM)
Tue 08:17:13 AM 57.0685 66.7894 278° West 394 453 32,000  Level FlightAware ADS-B (USTR / TJM)
Tue 08:17:29 AM 57.0722 66.7385 277° West 395 455 32,000  Level FlightAware ADS-B (USTR / TJM)
Tue 08:17:54 AM 57.0779 66.6589 278° West 394 453 32,000  Level FlightAware ADS-B (USTR / TJM)
Tue 08:18:00 AM 57.0796 66.6350 277° West 395 455 32,000  Level FlightAware ADS-B (USTR / TJM)
Tue 08:18:29 AM 57.0866 66.5375 278° West 396 456 32,000  Level FlightAware ADS-B (USTR / TJM)
Tue 08:18:32 AM 57.0869 66.5342 278° West 395 455 32,000  Level FlightAware ADS-B (USTR / TJM)
Tue 08:18:56 AM 57.0905 66.4831 278° West 396 456 32,000  Level FlightAware ADS-B (USTR / TJM)
Tue 08:20:30 AM 57.1137 66.1553 278° West 393 452 32,000  Level FlightAware ADS-B (USTR / TJM)
Tue 08:20:59 AM 57.1208 66.0510 277° West 393 452 32,000  Level FlightAware ADS-B (USTR / TJM)
Tue 08:21:02 AM 57.1219 66.0364 277° West 392 451 32,000  Level FlightAware ADS-B (USTR / TJM)
Tue 08:21:17 AM 57.1236 66.0101 277° West 393 452 32,000  Level FlightAware ADS-B (USTR / TJM)
Tue 08:22:06 AM 57.1360 65.8243 277° West 390 449 32,000  Level FlightAware ADS-B (USTR / TJM)
Tue 08:23:15 AM 57.1510 65.5951 277° West 389 448 32,000  Level FlightAware ADS-B (USTR / TJM)
Tue 08:24:40 AM 57.1673 65.3210 276° West 390 449 32,000  Level FlightAware ADS-B (USTR / TJM)
Tue 08:25:57 AM 57.1627 65.0749 268° West 391 450 32,000  Level FlightAware ADS-B (USTR / TJM)
Tue 08:26:23 AM 57.1602 64.9755 267° West 390 449 32,000  Level FlightAware ADS-B (USTR / TJM)
Tue 08:26:29 AM 57.1596 64.9557 267° West 390 449 32,000  Level FlightAware ADS-B (USTR / TJM)
Tue 08:27:00 AM 57.1574 64.8699 267° West 389 448 32,000  Level FlightAware ADS-B (USTR / TJM)
Tue 08:28:49 AM 57.1464 64.4903 267° West 397 457 32,000  Level FlightAware ADS-B (USTR / TJM)
Tue 08:29:20 AM 57.1433 64.3846 267° West 399 459 32,000  Level FlightAware ADS-B (USTR / TJM)
Tue 08:29:21 AM 57.1437 64.3982 87° East 399 459 32,000  Level FlightAware ADS-B (USTR / TJM)
Tue 08:29:49 AM 57.1402 64.2871 267° West 401 461 32,000  Level FlightAware ADS-B (USTR / TJM)
Tue 08:29:53 AM 57.1399 64.2770 267° West 401 461 32,000  Level FlightAware ADS-B (USTR / TJM)
Tue 08:30:20 AM 57.1369 64.1820 267° West 401 461 32,000  Level FlightAware ADS-B (USTR / TJM)
Tue 08:30:33 AM 57.1355 64.1391 267° West 401 461 32,000  Level FlightAware ADS-B (USTR / TJM)
Tue 08:30:49 AM 57.1338 64.0848 267° West 402 463 32,000  Level FlightAware ADS-B (USTR / TJM)
Tue 08:31:13 AM 57.1312 64.0087 266° West 401 461 32,000  Level FlightAware ADS-B (USTR / TJM)
Tue 08:31:20 AM 57.1301 63.9788 266° West 402 463 32,000  Level FlightAware ADS-B (USTR / TJM)
Tue 08:31:43 AM 57.1278 63.9128 266° West 402 463 32,000  Level FlightAware ADS-B (USTR / TJM)
Tue 08:31:49 AM 57.1267 63.8815 266° West 402 463 32,000  Level FlightAware ADS-B (USTR / TJM)
Tue 08:32:13 AM 57.1240 63.8060 266° West 403 464 32,000  Level FlightAware ADS-B (USTR / TJM)
Tue 08:32:21 AM 57.1225 63.7746 265° West 405 466 32,000  Level FlightAware ADS-B (USTR / TJM)
Tue 08:32:43 AM 57.1188 63.7008 265° West 405 466 32,000  Level FlightAware ADS-B (USTR / TJM)
Tue 08:32:50 AM 57.1175 63.6748 264° West 406 467 32,000  Level FlightAware ADS-B (USTR / TJM)
Tue 08:33:19 AM 57.1118 63.5717 264° West 406 467 32,000  Level FlightAware ADS-B (USTR / TJM)
Tue 08:33:23 AM 57.1112 63.5614 264° West 405 466 32,000  Level FlightAware ADS-B (USTR / TJM)
Tue 08:33:50 AM 57.1063 63.4691 264° West 406 467 32,000  Level FlightAware ADS-B (USTR / TJM)
Tue 08:34:03 AM 57.1039 63.4232 265° West 406 467 32,000  Level FlightAware ADS-B (USTR / TJM)
Tue 08:34:20 AM 57.1008 63.3644 265° West 405 466 32,000  Level FlightAware ADS-B (USTR / TJM)
Tue 08:34:33 AM 57.0986 63.3213 265° West 406 467 32,000  Level FlightAware ADS-B (USTR / TJM)
Tue 08:34:51 AM 57.0953 63.2603 264° West 407 468 32,000  Level FlightAware ADS-B (USTR / TJM)
Tue 08:35:13 AM 57.0910 63.1828 264° West 407 468 32,000  Level FlightAware ADS-B (USTR / TJM)
Tue 08:35:20 AM 57.0895 63.1554 264° West 408 470 32,000  Level FlightAware ADS-B (USTR / TJM)
Tue 08:35:43 AM 57.0852 63.0785 264° West 407 468 32,000  Level FlightAware ADS-B (USTR / TJM)
Tue 08:35:50 AM 57.0840 63.0579 264° West 408 470 32,000  Level FlightAware ADS-B (USTR / TJM)
Tue 08:36:13 AM 57.0797 62.9797 264° West 408 470 32,000  Level FlightAware ADS-B (USTR / TJM)
Tue 08:36:20 AM 57.0781 62.9509 264° West 409 471 32,000  Level FlightAware ADS-B (USTR / TJM)
Tue 08:36:51 AM 57.0723 62.8472 264° West 408 470 32,000  Level FlightAware ADS-B (USTR / TJM)
Tue 08:36:54 AM 57.0718 62.8390 264° West 407 468 32,000  Level FlightAware ADS-B (USTR / TJM)
Tue 08:37:19 AM 57.0666 62.7490 264° West 408 470 32,000  Level FlightAware ADS-B (USTR / TJM)
Tue 08:37:24 AM 57.0660 62.7380 264° West 407 468 32,000  Level FlightAware ADS-B (USTR / TJM)
Tue 08:37:50 AM 57.0605 62.6448 264° West 408 470 32,000  Level FlightAware ADS-B (USTR / TJM)
Tue 08:38:03 AM 57.0583 62.6064 264° West 407 468 32,000  Level FlightAware ADS-B (USTR / TJM)
Tue 08:38:20 AM 57.0544 62.5414 264° West 408 470 32,000  Level FlightAware ADS-B (USTR / TJM)
Tue 08:38:33 AM 57.0516 62.4941 264° West 408 470 32,000  Level FlightAware ADS-B (USTR / TJM)
Tue 08:38:50 AM 57.0482 62.4393 264° West 409 471 32,000  Level FlightAware ADS-B (USTR / TJM)
Tue 08:39:03 AM 57.0456 62.3967 264° West 409 471 32,000  Level FlightAware ADS-B (USTR / TJM)
Tue 08:39:20 AM 57.0419 62.3354 264° West 410 472 32,000  Level FlightAware ADS-B (USTR / TJM)
Tue 08:39:33 AM 57.0392 62.2927 263° West 411 473 32,000  Level FlightAware ADS-B (USTR / TJM)
Tue 08:39:50 AM 57.0353 62.2311 263° West 412 474 32,000  Level FlightAware ADS-B (USTR / TJM)
Tue 08:40:03 AM 57.0324 62.1854 263° West 413 475 32,000  Level FlightAware ADS-B (USTR / TJM)
Tue 08:40:20 AM 57.0288 62.1282 263° West 416 479 32,000  Level FlightAware ADS-B (USTR / TJM)
Tue 08:40:33 AM 57.0259 62.0821 263° West 417 480 32,000  Level FlightAware ADS-B (USTR / TJM)
Tue 08:40:50 AM 57.0224 62.0281 263° West 418 481 32,000  Level FlightAware ADS-B (USTR / TJM)
Tue 08:41:03 AM 57.0195 61.9810 263° West 419 482 32,000  Level FlightAware ADS-B (USTR / TJM)
Tue 08:41:20 AM 57.0151 61.9134 263° West 421 484 32,000  Level FlightAware ADS-B (USTR / TJM)
Tue 08:41:33 AM 57.0124 61.8718 263° West 420 483 32,000  Level FlightAware ADS-B (USTR / TJM)
Tue 08:41:50 AM 57.0084 61.8112 263° West 421 484 32,000  Level FlightAware ADS-B (USTR / TJM)
Tue 08:42:13 AM 57.0034 61.7356 263° West 421 484 32,000  Level FlightAware ADS-B (USTR / TJM)
Tue 08:42:20 AM 57.0013 61.7038 263° West 422 486 32,000  Level FlightAware ADS-B (USTR / TJM)
Tue 08:42:43 AM 56.9960 61.6252 263° West 422 486 32,000  Level FlightAware ADS-B (USTR / TJM)
Tue 08:42:51 AM 56.9940 61.5955 263° West 423 487 32,000 200 Level FlightAware ADS-B (USTR / TJM)
Tue 08:43:13 AM 56.9886 61.5176 263° West 421 484 32,100 207 Climbing FlightAware ADS-B (USTR / TJM)
Tue 08:43:20 AM 56.9867 61.4894 263° West 422 486 32,100  Level FlightAware ADS-B (USTR / TJM)
Tue 08:43:43 AM 56.9812 61.4106 263° West 418 481 32,100  Level FlightAware ADS-B (USTR / TJM)
Tue 08:43:50 AM 56.9796 61.3875 263° West 418 481 32,100  Level FlightAware ADS-B (USTR / TJM)
Tue 08:44:13 AM 56.9742 61.3108 263° West 415 478 32,100 -200 Level FlightAware ADS-B (USTR / TJM)
Tue 08:44:20 AM 56.9724 61.2859 263° West 416 479 32,000 -200 Descending FlightAware ADS-B (USTR / TJM)
Tue 08:44:43 AM 56.9666 61.2019 263° West 413 475 32,000  Level FlightAware ADS-B (USTR / TJM)
Tue 08:44:50 AM 56.9648 61.1769 263° West 414 476 32,000  Level FlightAware ADS-B (USTR / TJM)
Tue 08:45:13 AM 56.9595 61.1015 263° West 413 475 32,000  Level FlightAware ADS-B (USTR / TJM)
Tue 08:45:21 AM 56.9575 61.0733 262° West 413 475 32,000  Level FlightAware ADS-B (USTR / TJM)
Tue 08:45:43 AM 56.9521 60.9981 263° West 412 474 32,000  Level FlightAware ADS-B (USTR / TJM)
Tue 08:45:50 AM 56.9501 60.9712 263° West 413 475 32,000  Level FlightAware ADS-B (USTR / TJM)
Tue 08:46:13 AM 56.9445 60.8939 262° West 412 474 32,000  Level FlightAware ADS-B (USTR / TJM)
Tue 08:46:20 AM 56.9424 60.8664 262° West 413 475 32,000  Level FlightAware ADS-B (USTR / TJM)
Tue 08:46:43 AM 56.9373 60.7967 262° West 413 475 32,000  Level FlightAware ADS-B (USTR / TJM)
Tue 08:46:50 AM 56.9347 60.7622 262° West 414 476 32,000  Level FlightAware ADS-B (USTR / TJM)
Tue 08:47:13 AM 56.9311 60.6856 265° West 409 471 32,000  Level FlightAware ADS-B (USTR / TJM)
Tue 08:47:30 AM 56.9286 60.6263 266° West 412 474 32,000  Level FlightAware ADS-B (USTR / TJM)
Tue 08:47:43 AM 56.9271 60.5903 266° West 412 474 32,000  Level FlightAware ADS-B (USTR / TJM)
Tue 08:47:57 AM 56.9257 60.5576 265° West 415 478 32,000 377 Level FlightAware ADS-B (USTR / TJM)
Tue 08:53:01 AM 56.8725 59.4732 274° West 421 484 34,000 395 Climbing FlightAware ADS-B (USTR / TJM)
Tue 08:55:00 AM 56.8994 58.8885 275° West  Level Estimated
Tue 08:56:00 AM 56.9119 58.5934 275° West  Level Estimated
Tue 08:57:00 AM 56.9237 58.2981 274° West  Level Estimated
Tue 08:58:00 AM 56.9349 58.0026 274° West  Level Estimated
Tue 08:59:00 AM 56.9453 57.7070 274° West  Level Estimated
Tue 09:00:00 AM 56.9550 57.4112 274° West  Level Estimated
Tue 09:01:00 AM 56.9641 57.1152 273° West  Level Estimated
Tue 09:02:00 AM 56.9724 56.8191 273° West  Level Estimated
Tue 09:03:00 AM 56.9801 56.5229 273° West  Level Estimated
Tue 09:04:00 AM 56.9870 56.2266 273° West  Level Estimated
Tue 09:05:00 AM 56.9932 55.9301 272° West  Level Estimated
Tue 09:06:00 AM 56.9988 55.6336 272° West  Level Estimated
Tue 09:07:00 AM 57.0036 55.3369 272° West  Level Estimated
Tue 09:08:00 AM 57.0078 55.0403 272° West  Level Estimated
Tue 09:09:00 AM 57.0112 54.7435 271° West  Level Estimated
Tue 09:10:00 AM 57.0139 54.4467 271° West  Level Estimated
Tue 09:11:00 AM 57.0159 54.1499 271° West  Level Estimated
Tue 09:12:00 AM 57.0173 53.8530 271° West  Level Estimated
Tue 09:13:00 AM 57.0179 53.5561 270° West  Level Estimated
Tue 09:14:00 AM 57.0178 53.2593 270° West  Level Estimated
Tue 09:15:00 AM 57.0170 52.9624 270° West  Level Estimated
Tue 09:16:00 AM 57.0156 52.6655 270° West  Level Estimated
Tue 09:17:00 AM 57.0134 52.3687 269° West  Level Estimated
Tue 09:18:00 AM 57.0105 52.0719 269° West  Level Estimated
Tue 09:19:00 AM 57.0069 51.7752 269° West  Level Estimated
Tue 09:20:00 AM 57.0026 51.4785 269° West  Level Estimated
Tue 09:21:00 AM 56.9976 51.1819 268° West  Level Estimated
Tue 09:22:00 AM 56.9919 50.8854 268° West  Level Estimated
Tue 09:23:00 AM 56.9855 50.5889 268° West  Level Estimated
Tue 09:24:00 AM 56.9784 50.2926 268° West  Level Estimated
Tue 09:25:00 AM 56.9706 49.9964 267° West  Level Estimated
Tue 09:26:00 AM 56.9621 49.7004 267° West  Level Estimated
Tue 09:27:00 AM 56.9529 49.4045 267° West  Level Estimated
Tue 09:28:00 AM 56.9431 49.1087 267° West  Level Estimated
Tue 09:29:00 AM 56.9325 48.8131 266° West  Level Estimated
Tue 09:30:00 AM 56.9212 48.5176 266° West  Level Estimated
Tue 09:31:00 AM 56.9092 48.2224 266° West  Level Estimated
Tue 09:32:00 AM 56.8965 47.9273 266° West  Level Estimated
Tue 09:33:00 AM 56.8831 47.6325 265° West  Level Estimated
Tue 09:34:00 AM 56.8691 47.3378 265° West  Level Estimated
Tue 09:35:00 AM 56.8543 47.0434 265° West  Level Estimated
Tue 09:36:00 AM 56.8389 46.7493 265° West  Level Estimated
Tue 09:37:00 AM 56.8227 46.4553 264° West  Level Estimated
Tue 09:38:00 AM 56.8059 46.1617 264° West  Level Estimated
Tue 09:39:00 AM 56.7884 45.8683 264° West  Level Estimated
Tue 09:40:00 AM 56.7702 45.5752 264° West  Level Estimated
Tue 09:41:00 AM 56.7513 45.2823 263° West  Level Estimated
Tue 09:42:00 AM 56.7317 44.9898 263° West  Level Estimated
Tue 09:43:00 AM 56.7114 44.6976 263° West  Level Estimated
Tue 09:44:00 AM 56.6905 44.4057 263° West  Level Estimated
Tue 09:45:00 AM 56.6688 44.1141 262° West  Level Estimated
Tue 09:46:00 AM 56.6465 43.8229 262° West  Level Estimated
Tue 09:47:00 AM 56.6235 43.5320 262° West  Level Estimated
Tue 09:48:00 AM 56.5999 43.2415 262° West  Level Estimated
Tue 09:49:00 AM 56.5755 42.9514 261° West  Level Estimated
Tue 09:50:00 AM 56.5505 42.6616 261° West  Level Estimated
Tue 09:51:00 AM 56.5248 42.3722 261° West  Level Estimated
Tue 09:52:00 AM 56.4985 42.0832 261° West  Level Estimated
Tue 09:53:00 AM 56.4714 41.7946 260° West  Level Estimated
Tue 09:54:00 AM 56.4437 41.5065 260° West  Level Estimated
Tue 09:55:00 AM 56.4154 41.2187 260° West  Level Estimated
Tue 09:56:00 AM 56.3863 40.9314 260° West  Level Estimated
Tue 09:57:00 AM 56.3566 40.6446 260° West  Level Estimated
Tue 09:58:00 AM 56.3263 40.3582 259° West  Level Estimated
Tue 09:59:00 AM 56.2952 40.0722 259° West  Level Estimated
Tue 10:00:00 AM 56.2636 39.7867 259° West  Level Estimated
Tue 10:01:00 AM 56.2313 39.5017 259° West  Level Estimated
Tue 10:02:00 AM 56.1983 39.2172 258° West  Level Estimated
Tue 10:03:00 AM 56.1646 38.9332 258° West  Level Estimated
Tue 10:04:00 AM 56.1303 38.6497 258° West  Level Estimated
Tue 10:05:00 AM 56.0954 38.3667 258° West  Level Estimated
Tue 10:06:00 AM 56.0598 38.0842 257° West  Level Estimated
Tue 10:07:00 AM 56.0236 37.8022 257° West  Level Estimated
Tue 10:08:00 AM 55.9867 37.5208 257° West  Level Estimated
Tue 10:09:00 AM 55.9726 37.4146 257° West  Level Estimated
Tue 10:10:00 AM 55.9726 37.4146 344° North  Level Estimated
Tue 10:11:00 AM 55.9726 37.4146 344° North  Level Estimated
Tue 10:12:00 AM 55.9726 37.4146 344° North  Level Estimated
Tue 10:13:00 AM 55.9726 37.4146 344° North  Level Estimated
Tue 10:14:00 AM 55.9726 37.4146 344° North  Level Estimated
Tue 10:15:00 AM 55.9726 37.4146 344° North  Level Estimated
Tue 10:16:00 AM 55.9726 37.4146 344° North  Level Estimated
Tue 10:17:00 AM 55.9726 37.4146 344° North  Level Estimated
Tue 10:18:00 AM 55.9726 37.4146 344° North  Level Estimated
Tue 10:19:00 AM 55.9726 37.4146 344° North  Level Estimated
Tue 10:20:00 AM 55.9726 37.4146 344° North  Level Estimated
Tue 10:21:00 AM 55.9726 37.4146 344° North  Level Estimated
Tue 10:22:00 AM 55.9726 37.4146 344° North  Level Estimated
Tue 10:23:00 AM 55.9726 37.4146 344° North  Level Estimated
Tue 10:24:00 AM 55.9726 37.4146 344° North  Level Estimated
Tue 10:25:00 AM 55.9726 37.4146 344° North  Level Estimated
Tue 10:26:00 AM 55.9726 37.4146 344° North  Level Estimated
Tue 10:27:00 AM 55.9726 37.4146 344° North  Level Estimated
Tue 10:28:00 AM 55.9726 37.4146 344° North  Level Estimated
Tue 10:29:00 AM 55.9726 37.4146 344° North  Level Estimated
Tue 10:30:00 AM 55.9726 37.4146 344° North  Level Estimated
Tue 10:31:00 AM 55.9726 37.4146 344° North  Level Estimated
Tue 10:32:00 AM 55.9726 37.4146 344° North  Level Estimated
Tue 10:33:00 AM 55.9726 37.4146 344° North  Level Estimated
Tue 10:34:00 AM 55.9726 37.4146 344° North  Level Estimated
Tue 10:35:00 AM 55.9726 37.4146 344° North  Level Estimated
Tue 10:36:00 AM 55.9726 37.4146 344° North  Level Estimated
Tue 10:37:00 AM 55.9726 37.4146 344° North  Level Estimated
Tue 10:38:00 AM 55.9726 37.4146 344° North  Level Estimated
Tue 10:39:00 AM 55.9726 37.4146 344° North  Level Estimated
Tue 10:40:00 AM 55.9726 37.4146 344° North  Level Estimated
Tue 10:41:00 AM 55.9726 37.4146 344° North  Level Estimated
Tue 10:42:00 AM 55.9726 37.4146 344° North  Level Estimated
Tue 10:43:00 AM 55.9726 37.4146 344° North  Level Estimated
Tue 10:44:00 AM 55.9726 37.4146 344° North  Level Estimated
Tue 10:45:00 AM 55.9726 37.4146 344° North  Level Estimated
Tue 10:46:00 AM 55.9726 37.4146 344° North  Level Estimated
Tue 10:47:00 AM 55.9726 37.4146 344° North  Level Estimated
Tue 10:48:00 AM 55.9726 37.4146 344° North  Level Estimated
Tue 10:49:00 AM 55.9726 37.4146 344° North  Level Estimated
Tue 10:50:00 AM 55.9726 37.4146 344° North  Level Estimated
Tue 10:51:00 AM 55.9726 37.4146 344° North  Level Estimated
Tue 10:52:00 AM 55.9726 37.4146 344° North  Level Estimated
Tue 10:53:00 AM 55.9726 37.4146 344° North  Level Estimated
Tue 10:54:00 AM 55.9726 37.4146 344° North  Level Estimated
Tue 10:55:00 AM 55.9726 37.4146 344° North  Level Estimated
Tue 10:56:00 AM 55.9726 37.4146 344° North  Level Estimated
Tue 10:57:00 AM 55.9726 37.4146 344° North  Level Estimated
Tue 10:58:00 AM 55.9726 37.4146 344° North  Level Estimated

Login

Don't have an account? Register now (free) for customized features, flight alerts, and more!